sensor_id;sensor_type;location;lat;lon;timestamp;P1;durP1;ratioP1;P2;durP2;ratioP2
68108;SDS011;54893;49.864;19.084;2024-02-26T00:02:56;16.05;;;6.68;;
68108;SDS011;54893;49.864;19.084;2024-02-26T00:07:57;15.77;;;6.27;;
68108;SDS011;54893;49.864;19.084;2024-02-26T00:12:57;14.83;;;5.93;;
68108;SDS011;54893;49.864;19.084;2024-02-26T00:17:57;15.37;;;6.43;;
68108;SDS011;54893;49.864;19.084;2024-02-26T00:22:58;16.52;;;6.25;;
68108;SDS011;54893;49.864;19.084;2024-02-26T00:27:58;14.13;;;5.97;;
68108;SDS011;54893;49.864;19.084;2024-02-26T00:32:59;12.30;;;5.30;;
68108;SDS011;54893;49.864;19.084;2024-02-26T00:37:59;12.70;;;5.00;;
68108;SDS011;54893;49.864;19.084;2024-02-26T00:43:00;12.93;;;5.03;;
68108;SDS011;54893;49.864;19.084;2024-02-26T00:48:01;12.30;;;5.07;;
68108;SDS011;54893;49.864;19.084;2024-02-26T00:53:05;13.57;;;6.00;;
68108;SDS011;54893;49.864;19.084;2024-02-26T00:58:05;23.83;;;9.90;;
68108;SDS011;54893;49.864;19.084;2024-02-26T01:03:06;41.57;;;16.50;;
68108;SDS011;54893;49.864;19.084;2024-02-26T01:08:06;61.10;;;22.53;;
68108;SDS011;54893;49.864;19.084;2024-02-26T01:13:07;74.07;;;26.67;;
68108;SDS011;54893;49.864;19.084;2024-02-26T01:18:07;68.13;;;25.23;;
68108;SDS011;54893;49.864;19.084;2024-02-26T01:23:08;54.93;;;21.40;;
68108;SDS011;54893;49.864;19.084;2024-02-26T01:28:08;48.17;;;19.48;;
68108;SDS011;54893;49.864;19.084;2024-02-26T01:33:09;38.47;;;15.80;;
68108;SDS011;54893;49.864;19.084;2024-02-26T01:38:09;70.83;;;27.20;;
68108;SDS011;54893;49.864;19.084;2024-02-26T01:43:09;32.67;;;12.63;;
68108;SDS011;54893;49.864;19.084;2024-02-26T01:48:10;27.87;;;10.53;;
68108;SDS011;54893;49.864;19.084;2024-02-26T01:53:10;19.33;;;8.65;;
68108;SDS011;54893;49.864;19.084;2024-02-26T01:58:11;25.83;;;9.63;;
68108;SDS011;54893;49.864;19.084;2024-02-26T02:03:13;24.97;;;9.50;;
68108;SDS011;54893;49.864;19.084;2024-02-26T02:08:14;22.40;;;8.67;;
68108;SDS011;54893;49.864;19.084;2024-02-26T02:13:14;31.30;;;11.07;;
68108;SDS011;54893;49.864;19.084;2024-02-26T02:18:14;30.63;;;12.52;;
68108;SDS011;54893;49.864;19.084;2024-02-26T02:23:15;27.83;;;11.10;;
68108;SDS011;54893;49.864;19.084;2024-02-26T02:28:15;24.07;;;9.17;;
68108;SDS011;54893;49.864;19.084;2024-02-26T02:33:16;22.70;;;8.60;;
68108;SDS011;54893;49.864;19.084;2024-02-26T02:38:17;17.97;;;7.57;;
68108;SDS011;54893;49.864;19.084;2024-02-26T02:43:17;18.33;;;7.10;;
68108;SDS011;54893;49.864;19.084;2024-02-26T02:48:18;12.37;;;4.00;;
68108;SDS011;54893;49.864;19.084;2024-02-26T02:53:18;8.90;;;3.80;;
68108;SDS011;54893;49.864;19.084;2024-02-26T02:58:18;8.00;;;3.40;;
68108;SDS011;54893;49.864;19.084;2024-02-26T03:03:19;7.93;;;3.17;;
68108;SDS011;54893;49.864;19.084;2024-02-26T03:08:19;7.03;;;2.90;;
68108;SDS011;54893;49.864;19.084;2024-02-26T03:13:20;9.47;;;3.40;;
68108;SDS011;54893;49.864;19.084;2024-02-26T03:18:20;9.37;;;3.70;;
68108;SDS011;54893;49.864;19.084;2024-02-26T03:23:21;16.90;;;6.60;;
68108;SDS011;54893;49.864;19.084;2024-02-26T03:28:22;15.90;;;5.23;;
68108;SDS011;54893;49.864;19.084;2024-02-26T03:33:22;13.93;;;4.57;;
68108;SDS011;54893;49.864;19.084;2024-02-26T03:38:22;17.67;;;5.17;;
68108;SDS011;54893;49.864;19.084;2024-02-26T03:43:23;12.87;;;4.67;;
68108;SDS011;54893;49.864;19.084;2024-02-26T03:48:24;15.03;;;5.53;;
68108;SDS011;54893;49.864;19.084;2024-02-26T03:53:24;15.63;;;6.10;;
68108;SDS011;54893;49.864;19.084;2024-02-26T03:58:24;16.20;;;5.97;;
68108;SDS011;54893;49.864;19.084;2024-02-26T04:03:25;14.20;;;5.03;;
68108;SDS011;54893;49.864;19.084;2024-02-26T04:08:25;13.45;;;5.57;;
68108;SDS011;54893;49.864;19.084;2024-02-26T04:13:26;13.00;;;5.00;;
68108;SDS011;54893;49.864;19.084;2024-02-26T04:18:27;11.20;;;4.53;;
68108;SDS011;54893;49.864;19.084;2024-02-26T04:23:28;13.20;;;5.03;;
68108;SDS011;54893;49.864;19.084;2024-02-26T04:28:28;15.85;;;6.47;;
68108;SDS011;54893;49.864;19.084;2024-02-26T04:33:29;16.20;;;6.43;;
68108;SDS011;54893;49.864;19.084;2024-02-26T04:38:30;13.37;;;5.60;;
68108;SDS011;54893;49.864;19.084;2024-02-26T04:43:30;12.13;;;4.67;;
68108;SDS011;54893;49.864;19.084;2024-02-26T04:48:30;12.27;;;4.57;;
68108;SDS011;54893;49.864;19.084;2024-02-26T04:53:31;12.70;;;4.20;;
68108;SDS011;54893;49.864;19.084;2024-02-26T04:58:31;9.00;;;3.50;;
68108;SDS011;54893;49.864;19.084;2024-02-26T05:03:31;12.27;;;5.03;;
68108;SDS011;54893;49.864;19.084;2024-02-26T05:08:32;9.70;;;3.47;;
68108;SDS011;54893;49.864;19.084;2024-02-26T05:13:33;10.75;;;3.30;;
68108;SDS011;54893;49.864;19.084;2024-02-26T05:18:34;13.47;;;4.70;;
68108;SDS011;54893;49.864;19.084;2024-02-26T05:23:34;17.80;;;6.13;;
68108;SDS011;54893;49.864;19.084;2024-02-26T05:28:34;15.53;;;5.87;;
68108;SDS011;54893;49.864;19.084;2024-02-26T05:33:36;14.25;;;5.63;;
68108;SDS011;54893;49.864;19.084;2024-02-26T05:38:36;12.57;;;5.27;;
68108;SDS011;54893;49.864;19.084;2024-02-26T05:43:36;15.83;;;5.70;;
68108;SDS011;54893;49.864;19.084;2024-02-26T05:48:37;20.07;;;7.40;;
68108;SDS011;54893;49.864;19.084;2024-02-26T05:53:37;18.80;;;6.63;;
68108;SDS011;54893;49.864;19.084;2024-02-26T05:58:38;18.73;;;6.27;;
68108;SDS011;54893;49.864;19.084;2024-02-26T06:03:38;11.53;;;4.93;;
68108;SDS011;54893;49.864;19.084;2024-02-26T06:08:39;15.35;;;5.43;;
68108;SDS011;54893;49.864;19.084;2024-02-26T06:13:39;13.57;;;5.50;;
68108;SDS011;54893;49.864;19.084;2024-02-26T06:18:41;16.30;;;6.28;;
68108;SDS011;54893;49.864;19.084;2024-02-26T06:23:41;12.88;;;4.90;;
68108;SDS011;54893;49.864;19.084;2024-02-26T06:28:42;13.73;;;5.27;;
68108;SDS011;54893;49.864;19.084;2024-02-26T06:33:42;12.20;;;5.07;;
68108;SDS011;54893;49.864;19.084;2024-02-26T06:38:43;10.37;;;3.97;;
68108;SDS011;54893;49.864;19.084;2024-02-26T06:43:43;11.77;;;4.33;;
68108;SDS011;54893;49.864;19.084;2024-02-26T06:48:43;23.80;;;8.80;;
68108;SDS011;54893;49.864;19.084;2024-02-26T06:53:44;21.60;;;7.50;;
68108;SDS011;54893;49.864;19.084;2024-02-26T06:58:44;20.57;;;6.93;;
68108;SDS011;54893;49.864;19.084;2024-02-26T07:03:44;16.33;;;6.50;;
68108;SDS011;54893;49.864;19.084;2024-02-26T07:08:45;14.10;;;4.87;;
68108;SDS011;54893;49.864;19.084;2024-02-26T07:13:46;12.63;;;5.03;;
68108;SDS011;54893;49.864;19.084;2024-02-26T07:18:46;19.33;;;7.80;;
68108;SDS011;54893;49.864;19.084;2024-02-26T07:23:47;17.53;;;7.33;;
68108;SDS011;54893;49.864;19.084;2024-02-26T07:28:47;17.17;;;6.30;;
68108;SDS011;54893;49.864;19.084;2024-02-26T07:33:48;14.13;;;5.30;;
68108;SDS011;54893;49.864;19.084;2024-02-26T07:38:48;9.80;;;4.40;;
68108;SDS011;54893;49.864;19.084;2024-02-26T07:43:48;14.53;;;5.20;;
68108;SDS011;54893;49.864;19.084;2024-02-26T07:48:49;12.23;;;4.77;;
68108;SDS011;54893;49.864;19.084;2024-02-26T07:53:49;17.33;;;6.68;;
68108;SDS011;54893;49.864;19.084;2024-02-26T07:58:50;12.07;;;4.97;;
68108;SDS011;54893;49.864;19.084;2024-02-26T08:03:50;17.53;;;6.90;;
68108;SDS011;54893;49.864;19.084;2024-02-26T08:08:50;23.53;;;8.67;;
68108;SDS011;54893;49.864;19.084;2024-02-26T08:13:51;24.47;;;8.00;;
68108;SDS011;54893;49.864;19.084;2024-02-26T08:18:51;20.37;;;7.03;;
68108;SDS011;54893;49.864;19.084;2024-02-26T08:23:52;16.43;;;7.20;;
68108;SDS011;54893;49.864;19.084;2024-02-26T08:28:52;15.70;;;6.63;;
68108;SDS011;54893;49.864;19.084;2024-02-26T08:33:55;16.25;;;7.10;;
68108;SDS011;54893;49.864;19.084;2024-02-26T08:38:56;15.10;;;6.90;;
68108;SDS011;54893;49.864;19.084;2024-02-26T08:43:56;16.03;;;7.13;;
68108;SDS011;54893;49.864;19.084;2024-02-26T08:48:58;17.63;;;7.50;;
68108;SDS011;54893;49.864;19.084;2024-02-26T08:53:58;20.73;;;8.47;;
68108;SDS011;54893;49.864;19.084;2024-02-26T08:58:59;17.57;;;7.10;;
68108;SDS011;54893;49.864;19.084;2024-02-26T09:04:03;20.00;;;8.40;;
68108;SDS011;54893;49.864;19.084;2024-02-26T09:09:04;16.90;;;6.97;;
68108;SDS011;54893;49.864;19.084;2024-02-26T09:14:04;16.90;;;7.10;;
68108;SDS011;54893;49.864;19.084;2024-02-26T09:19:04;15.90;;;6.83;;
68108;SDS011;54893;49.864;19.084;2024-02-26T09:24:05;13.13;;;5.43;;
68108;SDS011;54893;49.864;19.084;2024-02-26T09:29:05;16.80;;;6.73;;
68108;SDS011;54893;49.864;19.084;2024-02-26T09:34:06;14.43;;;6.53;;
68108;SDS011;54893;49.864;19.084;2024-02-26T09:39:06;15.73;;;6.23;;
68108;SDS011;54893;49.864;19.084;2024-02-26T09:44:11;16.33;;;7.35;;
68108;SDS011;54893;49.864;19.084;2024-02-26T09:49:15;17.40;;;7.20;;
68108;SDS011;54893;49.864;19.084;2024-02-26T09:54:16;16.42;;;7.03;;
68108;SDS011;54893;49.864;19.084;2024-02-26T09:59:17;15.93;;;6.40;;
68108;SDS011;54893;49.864;19.084;2024-02-26T10:04:17;19.30;;;5.87;;
68108;SDS011;54893;49.864;19.084;2024-02-26T10:09:19;5.78;;;2.53;;
68108;SDS011;54893;49.864;19.084;2024-02-26T10:14:20;5.13;;;2.03;;
68108;SDS011;54893;49.864;19.084;2024-02-26T10:19:28;4.73;;;2.10;;
68108;SDS011;54893;49.864;19.084;2024-02-26T10:24:30;6.80;;;2.30;;
68108;SDS011;54893;49.864;19.084;2024-02-26T10:29:30;6.32;;;2.00;;
68108;SDS011;54893;49.864;19.084;2024-02-26T10:34:31;7.67;;;3.37;;
68108;SDS011;54893;49.864;19.084;2024-02-26T10:39:31;14.63;;;6.47;;
68108;SDS011;54893;49.864;19.084;2024-02-26T10:44:32;12.53;;;5.50;;
68108;SDS011;54893;49.864;19.084;2024-02-26T10:49:32;11.57;;;4.50;;
68108;SDS011;54893;49.864;19.084;2024-02-26T10:54:34;10.43;;;5.20;;
68108;SDS011;54893;49.864;19.084;2024-02-26T10:59:38;11.13;;;5.13;;
68108;SDS011;54893;49.864;19.084;2024-02-26T11:04:41;12.82;;;5.13;;
68108;SDS011;54893;49.864;19.084;2024-02-26T11:09:42;10.90;;;5.43;;
68108;SDS011;54893;49.864;19.084;2024-02-26T11:14:46;12.63;;;4.97;;
68108;SDS011;54893;49.864;19.084;2024-02-26T11:19:49;12.60;;;5.10;;
68108;SDS011;54893;49.864;19.084;2024-02-26T11:24:51;11.48;;;5.20;;
68108;SDS011;54893;49.864;19.084;2024-02-26T11:29:54;13.25;;;5.60;;
68108;SDS011;54893;49.864;19.084;2024-02-26T11:34:55;11.25;;;4.28;;
68108;SDS011;54893;49.864;19.084;2024-02-26T11:39:58;14.20;;;5.07;;
68108;SDS011;54893;49.864;19.084;2024-02-26T11:44:59;14.43;;;6.00;;
68108;SDS011;54893;49.864;19.084;2024-02-26T11:50:00;11.43;;;5.75;;
68108;SDS011;54893;49.864;19.084;2024-02-26T11:55:36;13.53;;;5.23;;
68108;SDS011;54893;49.864;19.084;2024-02-26T12:00:37;11.95;;;5.53;;
68108;SDS011;54893;49.864;19.084;2024-02-26T12:05:40;13.05;;;4.97;;
68108;SDS011;54893;49.864;19.084;2024-02-26T12:10:41;14.25;;;5.55;;
68108;SDS011;54893;49.864;19.084;2024-02-26T12:15:44;14.07;;;5.50;;
68108;SDS011;54893;49.864;19.084;2024-02-26T12:20:58;12.38;;;5.18;;
68108;SDS011;54893;49.864;19.084;2024-02-26T12:26:02;17.70;;;7.00;;
68108;SDS011;54893;49.864;19.084;2024-02-26T12:31:02;13.00;;;5.55;;
68108;SDS011;54893;49.864;19.084;2024-02-26T12:36:04;14.67;;;6.10;;
68108;SDS011;54893;49.864;19.084;2024-02-26T12:41:05;13.18;;;5.85;;
68108;SDS011;54893;49.864;19.084;2024-02-26T12:46:06;15.50;;;7.07;;
68108;SDS011;54893;49.864;19.084;2024-02-26T12:51:07;18.20;;;7.70;;
68108;SDS011;54893;49.864;19.084;2024-02-26T12:56:08;17.77;;;8.13;;
68108;SDS011;54893;49.864;19.084;2024-02-26T13:01:13;18.93;;;7.60;;
68108;SDS011;54893;49.864;19.084;2024-02-26T13:06:17;14.32;;;6.30;;
68108;SDS011;54893;49.864;19.084;2024-02-26T13:11:18;18.50;;;6.78;;
68108;SDS011;54893;49.864;19.084;2024-02-26T13:16:19;16.77;;;6.43;;
68108;SDS011;54893;49.864;19.084;2024-02-26T13:21:19;16.37;;;7.20;;
68108;SDS011;54893;49.864;19.084;2024-02-26T13:26:22;8.03;;;3.27;;
68108;SDS011;54893;49.864;19.084;2024-02-26T13:31:25;7.50;;;3.60;;
68108;SDS011;54893;49.864;19.084;2024-02-26T13:36:26;7.80;;;3.30;;
68108;SDS011;54893;49.864;19.084;2024-02-26T13:41:27;6.03;;;2.90;;
68108;SDS011;54893;49.864;19.084;2024-02-26T13:46:27;6.70;;;3.23;;
68108;SDS011;54893;49.864;19.084;2024-02-26T13:51:28;6.88;;;3.25;;
68108;SDS011;54893;49.864;19.084;2024-02-26T13:56:35;7.93;;;3.10;;
68108;SDS011;54893;49.864;19.084;2024-02-26T14:01:36;8.57;;;3.55;;
68108;SDS011;54893;49.864;19.084;2024-02-26T14:06:36;7.87;;;3.47;;
68108;SDS011;54893;49.864;19.084;2024-02-26T14:11:36;7.23;;;3.60;;
68108;SDS011;54893;49.864;19.084;2024-02-26T14:16:39;7.97;;;3.67;;
68108;SDS011;54893;49.864;19.084;2024-02-26T14:21:40;12.23;;;3.70;;
68108;SDS011;54893;49.864;19.084;2024-02-26T14:26:40;8.53;;;3.90;;
68108;SDS011;54893;49.864;19.084;2024-02-26T14:31:40;7.23;;;3.50;;
68108;SDS011;54893;49.864;19.084;2024-02-26T14:36:41;5.50;;;2.93;;
68108;SDS011;54893;49.864;19.084;2024-02-26T14:41:41;7.10;;;3.40;;
68108;SDS011;54893;49.864;19.084;2024-02-26T14:46:42;8.35;;;3.72;;
68108;SDS011;54893;49.864;19.084;2024-02-26T14:51:43;9.43;;;3.83;;
68108;SDS011;54893;49.864;19.084;2024-02-26T14:56:44;7.47;;;3.40;;
68108;SDS011;54893;49.864;19.084;2024-02-26T15:01:45;7.60;;;3.25;;
68108;SDS011;54893;49.864;19.084;2024-02-26T15:06:46;6.37;;;2.83;;
68108;SDS011;54893;49.864;19.084;2024-02-26T15:11:46;6.80;;;3.00;;
68108;SDS011;54893;49.864;19.084;2024-02-26T15:16:47;7.00;;;2.83;;
68108;SDS011;54893;49.864;19.084;2024-02-26T15:21:48;8.20;;;3.03;;
68108;SDS011;54893;49.864;19.084;2024-02-26T15:26:49;7.63;;;3.13;;
68108;SDS011;54893;49.864;19.084;2024-02-26T15:31:49;7.20;;;3.43;;
68108;SDS011;54893;49.864;19.084;2024-02-26T15:36:49;8.80;;;3.60;;
68108;SDS011;54893;49.864;19.084;2024-02-26T15:41:50;11.03;;;4.17;;
68108;SDS011;54893;49.864;19.084;2024-02-26T15:46:50;10.30;;;4.20;;
68108;SDS011;54893;49.864;19.084;2024-02-26T15:51:50;10.10;;;4.63;;
68108;SDS011;54893;49.864;19.084;2024-02-26T15:56:51;11.60;;;5.07;;
68108;SDS011;54893;49.864;19.084;2024-02-26T16:01:51;12.13;;;5.70;;
68108;SDS011;54893;49.864;19.084;2024-02-26T16:06:53;13.93;;;5.77;;
68108;SDS011;54893;49.864;19.084;2024-02-26T16:11:56;12.20;;;5.45;;
68108;SDS011;54893;49.864;19.084;2024-02-26T16:17:08;12.77;;;5.50;;
68108;SDS011;54893;49.864;19.084;2024-02-26T16:22:12;15.27;;;5.78;;
68108;SDS011;54893;49.864;19.084;2024-02-26T16:27:14;23.23;;;6.57;;
68108;SDS011;54893;49.864;19.084;2024-02-26T16:32:14;21.20;;;7.10;;
68108;SDS011;54893;49.864;19.084;2024-02-26T16:37:15;24.93;;;8.40;;
68108;SDS011;54893;49.864;19.084;2024-02-26T16:42:17;25.33;;;9.88;;
68108;SDS011;54893;49.864;19.084;2024-02-26T16:47:19;23.52;;;9.98;;
68108;SDS011;54893;49.864;19.084;2024-02-26T16:52:19;26.20;;;11.43;;
68108;SDS011;54893;49.864;19.084;2024-02-26T16:57:20;27.40;;;11.35;;
68108;SDS011;54893;49.864;19.084;2024-02-26T17:02:21;26.13;;;11.25;;
68108;SDS011;54893;49.864;19.084;2024-02-26T17:07:22;25.30;;;10.70;;
68108;SDS011;54893;49.864;19.084;2024-02-26T17:12:22;26.37;;;10.97;;
68108;SDS011;54893;49.864;19.084;2024-02-26T17:17:22;27.23;;;12.40;;
68108;SDS011;54893;49.864;19.084;2024-02-26T17:22:23;26.13;;;12.90;;
68108;SDS011;54893;49.864;19.084;2024-02-26T17:27:25;29.48;;;13.07;;
68108;SDS011;54893;49.864;19.084;2024-02-26T17:32:25;29.37;;;11.93;;
68108;SDS011;54893;49.864;19.084;2024-02-26T17:37:26;39.33;;;14.83;;
68108;SDS011;54893;49.864;19.084;2024-02-26T17:42:26;49.33;;;18.37;;
68108;SDS011;54893;49.864;19.084;2024-02-26T17:47:27;65.60;;;26.70;;
68108;SDS011;54893;49.864;19.084;2024-02-26T17:52:27;63.40;;;25.20;;
68108;SDS011;54893;49.864;19.084;2024-02-26T17:57:28;57.07;;;22.57;;
68108;SDS011;54893;49.864;19.084;2024-02-26T18:02:28;59.63;;;23.25;;
68108;SDS011;54893;49.864;19.084;2024-02-26T18:07:29;38.33;;;16.60;;
68108;SDS011;54893;49.864;19.084;2024-02-26T18:12:29;42.83;;;17.67;;
68108;SDS011;54893;49.864;19.084;2024-02-26T18:17:30;51.13;;;19.87;;
68108;SDS011;54893;49.864;19.084;2024-02-26T18:22:31;48.65;;;20.20;;
68108;SDS011;54893;49.864;19.084;2024-02-26T18:27:31;56.40;;;22.50;;
68108;SDS011;54893;49.864;19.084;2024-02-26T18:32:34;51.33;;;20.02;;
68108;SDS011;54893;49.864;19.084;2024-02-26T18:37:35;53.17;;;19.98;;
68108;SDS011;54893;49.864;19.084;2024-02-26T18:42:35;37.23;;;15.53;;
68108;SDS011;54893;49.864;19.084;2024-02-26T18:47:37;39.30;;;14.60;;
68108;SDS011;54893;49.864;19.084;2024-02-26T18:52:38;41.33;;;15.90;;
68108;SDS011;54893;49.864;19.084;2024-02-26T18:57:39;45.58;;;18.13;;
68108;SDS011;54893;49.864;19.084;2024-02-26T19:02:41;50.28;;;18.77;;
68108;SDS011;54893;49.864;19.084;2024-02-26T19:07:41;62.50;;;21.83;;
68108;SDS011;54893;49.864;19.084;2024-02-26T19:12:42;67.93;;;22.97;;
68108;SDS011;54893;49.864;19.084;2024-02-26T19:17:44;70.30;;;24.60;;
68108;SDS011;54893;49.864;19.084;2024-02-26T19:22:47;73.60;;;25.10;;
68108;SDS011;54893;49.864;19.084;2024-02-26T19:27:48;65.40;;;26.13;;
68108;SDS011;54893;49.864;19.084;2024-02-26T19:32:49;53.80;;;21.33;;
68108;SDS011;54893;49.864;19.084;2024-02-26T19:37:49;57.63;;;22.27;;
68108;SDS011;54893;49.864;19.084;2024-02-26T19:42:50;53.33;;;20.70;;
68108;SDS011;54893;49.864;19.084;2024-02-26T19:47:51;51.08;;;18.65;;
68108;SDS011;54893;49.864;19.084;2024-02-26T19:52:52;47.93;;;18.13;;
68108;SDS011;54893;49.864;19.084;2024-02-26T19:57:52;59.20;;;20.10;;
68108;SDS011;54893;49.864;19.084;2024-02-26T20:02:53;56.80;;;20.67;;
68108;SDS011;54893;49.864;19.084;2024-02-26T20:07:53;92.13;;;35.93;;
68108;SDS011;54893;49.864;19.084;2024-02-26T20:12:54;131.45;;;52.17;;
68108;SDS011;54893;49.864;19.084;2024-02-26T20:17:58;87.00;;;30.30;;
68108;SDS011;54893;49.864;19.084;2024-02-26T20:22:58;267.63;;;66.73;;
68108;SDS011;54893;49.864;19.084;2024-02-26T20:27:58;89.67;;;30.03;;
68108;SDS011;54893;49.864;19.084;2024-02-26T20:32:59;58.20;;;21.17;;
68108;SDS011;54893;49.864;19.084;2024-02-26T20:37:59;53.00;;;19.17;;
68108;SDS011;54893;49.864;19.084;2024-02-26T20:43:00;49.87;;;18.97;;
68108;SDS011;54893;49.864;19.084;2024-02-26T20:48:01;55.50;;;19.98;;
68108;SDS011;54893;49.864;19.084;2024-02-26T20:53:02;56.37;;;19.53;;
68108;SDS011;54893;49.864;19.084;2024-02-26T20:58:03;54.73;;;21.07;;
68108;SDS011;54893;49.864;19.084;2024-02-26T21:03:03;82.17;;;28.40;;
68108;SDS011;54893;49.864;19.084;2024-02-26T21:08:09;61.83;;;23.60;;
68108;SDS011;54893;49.864;19.084;2024-02-26T21:13:09;59.35;;;23.95;;
68108;SDS011;54893;49.864;19.084;2024-02-26T21:18:10;66.77;;;26.33;;
68108;SDS011;54893;49.864;19.084;2024-02-26T21:23:10;72.13;;;27.77;;
68108;SDS011;54893;49.864;19.084;2024-02-26T21:28:12;68.37;;;25.53;;
68108;SDS011;54893;49.864;19.084;2024-02-26T21:33:12;83.43;;;31.73;;
68108;SDS011;54893;49.864;19.084;2024-02-26T21:38:13;61.23;;;22.70;;
68108;SDS011;54893;49.864;19.084;2024-02-26T21:43:13;54.00;;;21.63;;
68108;SDS011;54893;49.864;19.084;2024-02-26T21:48:14;71.27;;;26.20;;
68108;SDS011;54893;49.864;19.084;2024-02-26T21:53:14;92.90;;;35.10;;
68108;SDS011;54893;49.864;19.084;2024-02-26T21:58:15;89.23;;;33.83;;
68108;SDS011;54893;49.864;19.084;2024-02-26T22:03:15;91.27;;;36.23;;
68108;SDS011;54893;49.864;19.084;2024-02-26T22:08:16;88.23;;;33.80;;
68108;SDS011;54893;49.864;19.084;2024-02-26T22:13:16;81.33;;;31.80;;
68108;SDS011;54893;49.864;19.084;2024-02-26T22:18:17;106.93;;;40.63;;
68108;SDS011;54893;49.864;19.084;2024-02-26T22:23:19;101.85;;;39.30;;
68108;SDS011;54893;49.864;19.084;2024-02-26T22:28:19;122.93;;;45.90;;
68108;SDS011;54893;49.864;19.084;2024-02-26T22:33:19;99.03;;;38.80;;
68108;SDS011;54893;49.864;19.084;2024-02-26T22:38:20;91.43;;;35.57;;
68108;SDS011;54893;49.864;19.084;2024-02-26T22:43:21;81.70;;;31.63;;
68108;SDS011;54893;49.864;19.084;2024-02-26T22:48:21;81.37;;;29.57;;
68108;SDS011;54893;49.864;19.084;2024-02-26T22:53:22;87.18;;;33.13;;
68108;SDS011;54893;49.864;19.084;2024-02-26T22:58:22;93.77;;;35.03;;
68108;SDS011;54893;49.864;19.084;2024-02-26T23:03:23;90.43;;;32.80;;
68108;SDS011;54893;49.864;19.084;2024-02-26T23:08:23;77.37;;;27.37;;
68108;SDS011;54893;49.864;19.084;2024-02-26T23:13:23;76.33;;;29.77;;
68108;SDS011;54893;49.864;19.084;2024-02-26T23:18:24;70.33;;;27.20;;
68108;SDS011;54893;49.864;19.084;2024-02-26T23:23:24;69.00;;;27.00;;
68108;SDS011;54893;49.864;19.084;2024-02-26T23:28:24;72.23;;;27.80;;
68108;SDS011;54893;49.864;19.084;2024-02-26T23:33:25;68.37;;;26.60;;
68108;SDS011;54893;49.864;19.084;2024-02-26T23:38:25;62.47;;;23.50;;
68108;SDS011;54893;49.864;19.084;2024-02-26T23:43:26;52.83;;;20.23;;
68108;SDS011;54893;49.864;19.084;2024-02-26T23:48:26;42.40;;;15.73;;
68108;SDS011;54893;49.864;19.084;2024-02-26T23:53:27;51.33;;;19.50;;
68108;SDS011;54893;49.864;19.084;2024-02-26T23:58:27;45.07;;;17.00;;
